Lagoa Real, Brazil
Current Conditions -  °F | °C
As of 8:00 AM on Thursday 27 Nov 2014 (Local Time) from SBQV Reporting Station
Scattered Clouds Scattered Clouds  
Wind Chill: 73°   Ceiling: Unl
Heat Index: 73°   Visibility: 6mi
Dew Point: 64°   Wind: 16mph
Humidity: 73%   Direction: 20°NNE
Pressure: 30.09"   Gusts: NA
Location:  14.04°S, 42.15°W
Report Text: SBQV 271100Z 02014KT 9999 SCT015 SCT070 23/18 Q1019
Loading
Personal Weather Stations






























Interactive Weather Map New forecast layout! Learn more

10-Day Weather Forecast

Advertisements
Track Severe Weather on mobile